Latest Weather Observations for Creal Reef

IDQ60801

Issued at 1:02 am EST Tuesday 24 October 2017 (issued every 30 minutes, with the page automatically refreshed every 10 minutes)

About weather observations | Map of weather stations | Latest weather observations for QLD | Other Formats
Station Details ID: 200736 Name: CREAL REEF Lat: -20.53 Lon: 150.38 Height: 1.7 m
Data from the previous 72 hours. | See also: Recent months for locations in Queensland
Date/Time
EST
Temp
°C
App
Temp
°C
Dew
Point
°C
Rel
Hum
%
Delta-T
°C
Wind Press
QNH
hPa
Press
MSL
hPa
Rain since
9am
mm
Dir  Spd
km/h
Gust
km/h
Spd
kts
Gust
kts
24/01:00am 24.0 - - - - E 22 26 12 14 1014.8 - -
24/12:30am 24.0 - - - - E 22 26 12 14 1014.8 - -
24/12:20am 24.0 - - - - E 20 - 11 - - 1014.8 -
24/12:00am 23.9 - - - - E 22 26 12 14 1015.0 - -
 
Date/Time
EST
Temp
°C
App
Temp
°C
Dew
Point
°C
Rel
Hum
%
Delta-T
°C
Wind Press
QNH
hPa
Press
MSL
hPa
Rain since
9am
mm
Dir  Spd
km/h
Gust
km/h
Spd
kts
Gust
kts
23/11:30pm 24.1 - - - - E 22 26 12 14 1015.2 - -
23/11:20pm 24.1 - - - - E 24 - 13 - - 1015.1 -
23/11:00pm 24.1 - - - - E 22 26 12 14 1015.1 - -
23/10:30pm 23.9 - - - - E 24 28 13 15 1015.1 - -
23/10:20pm 23.8 - - - - E 22 - 12 - - 1015.1 -
23/10:00pm 24.2 - - - - E 24 28 13 15 1015.2 - -
23/09:30pm 23.8 - - - - E 24 28 13 15 1015.1 - -
23/09:20pm 23.8 - - - - E 24 - 13 - - 1015.0 -
23/09:00pm 24.0 - - - - E 24 26 13 14 1014.9 - -
23/08:30pm 24.0 - - - - E 22 26 12 14 1014.7 - -
23/08:20pm 24.1 - - - - E 24 - 13 - - 1014.5 -
23/08:00pm 24.2 - - - - E 24 26 13 14 1014.5 - -
23/07:30pm 24.2 - - - - E 20 24 11 13 1014.2 - -
23/07:20pm 24.2 - - - - ESE 19 - 10 - - 1014.1 -
23/07:00pm 24.1 - - - - ESE 20 24 11 13 1014.1 - -
23/06:30pm 24.2 - - - - ESE 24 28 13 15 1013.6 - -
23/06:20pm 24.3 - - - - SE 24 - 13 - - 1013.3 -
23/06:00pm 24.3 - - - - SE 26 30 14 16 1013.2 - -
23/05:30pm 24.4 - - - - SE 26 30 14 16 1012.6 - -
23/05:20pm 24.4 - - - - SE 28 - 15 - - 1012.5 -
23/05:00pm 25.0 - - - - SE 20 30 11 16 1012.4 - -
23/04:30pm 25.0 - - - - SE 22 24 12 13 1012.1 - -
23/04:20pm 25.0 - - - - SE 24 - 13 - - 1011.9 -
23/04:00pm 25.3 - - - - SE 20 20 11 11 1011.9 - -
23/03:30pm 24.9 - - - - SE 20 24 11 13 1011.9 - -
23/03:20pm 24.8 - - - - SE 22 - 12 - - 1011.8 -
23/03:00pm 24.7 - - - - SSE 22 28 12 15 1012.0 - -
23/02:30pm 24.2 - - - - SSE 22 28 12 15 1012.1 - -
23/02:20pm 24.1 - - - - SSE 22 - 12 - - 1012.2 -
23/02:00pm 24.1 - - - - SSE 20 26 11 14 1012.4 - -
23/01:30pm 23.7 - - - - SE 22 26 12 14 1012.7 - -
23/01:20pm 23.6 - - - - SE 24 - 13 - - 1012.6 -
23/01:00pm 23.7 - - - - SE 26 32 14 17 1012.9 - -
23/12:30pm 23.1 - - - - SE 32 35 17 19 1013.3 - -
23/12:20pm 23.3 - - - - SSE 28 - 15 - - 1013.4 -
23/12:00pm 23.0 - - - - SSE 30 35 16 19 1013.7 - -
23/11:30am 23.4 - - - - S 39 43 21 23 1013.6 - -
23/11:28am 23.4 - - - - S 37 41 20 22 1013.7 - -
23/11:20am 24.7 - - - - S 15 - 8 - - 1013.9 -
23/11:00am 24.8 - - - - S 17 20 9 11 1013.9 - -
23/10:30am 24.8 - - - - S 15 19 8 10 1013.9 - -
23/10:20am 25.1 - - - - SSW 13 - 7 - - 1013.9 -
23/10:00am 25.0 - - - - SSW 9 13 5 7 1014.1 - -
23/09:30am 26.2 - - - - CALM 0 0 0 0 1014.0 - -
23/09:20am 25.9 - - - - CALM 0 - 0 - - 1013.8 -
23/09:00am 24.8 - - - - CALM 0 0 0 0 1013.5 - -
23/08:30am 24.9 - - - - NNE 4 7 2 4 1013.4 - -
23/08:20am 24.9 - - - - NNE 7 - 4 - - 1013.2 -
23/08:00am 24.5 - - - - NNE 9 11 5 6 1013.0 - -
23/07:30am 24.5 - - - - NNE 11 13 6 7 1012.5 - -
23/07:20am 24.4 - - - - N 11 - 6 - - 1012.4 -
23/07:00am 24.4 - - - - N 11 13 6 7 1012.4 - -
23/06:30am 24.1 - - - - NNE 9 13 5 7 1012.1 - -
23/06:20am 24.2 - - - - NNE 11 - 6 - - 1011.9 -
23/06:00am 24.2 - - - - NNE 13 15 7 8 1011.8 - -
23/05:30am 23.9 - - - - NE 11 15 6 8 1011.7 - -
23/05:20am 24.0 - - - - NE 11 - 6 - - 1011.5 -
23/05:00am 24.0 - - - - NE 11 15 6 8 1011.6 - -
23/04:30am 24.0 - - - - NE 13 15 7 8 1011.6 - -
23/04:20am 23.9 - - - - ENE 13 - 7 - - 1011.4 -
23/04:00am 23.9 - - - - ENE 13 15 7 8 1011.5 - -
23/03:30am 23.9 - - - - E 11 15 6 8 1011.3 - -
23/03:20am 24.0 - - - - ENE 13 - 7 - - 1011.0 -
23/03:00am 24.0 - - - - E 15 20 8 11 1011.0 - -
23/02:30am 23.8 - - - - E 17 20 9 11 1011.0 - -
23/02:20am 23.8 - - - - E 17 - 9 - - 1011.0 -
23/02:00am 23.9 - - - - E 17 19 9 10 1011.3 - -
23/01:30am 23.9 - - - - E 17 20 9 11 1011.6 - -
23/01:20am 23.9 - - - - E 17 - 9 - - 1011.7 -
23/01:00am 24.1 - - - - E 19 22 10 12 1011.7 - -
23/12:30am 23.9 - - - - E 20 24 11 13 1012.1 - -
23/12:20am 24.0 - - - - E 19 - 10 - - 1012.2 -
23/12:00am 24.2 - - - - E 19 20 10 11 1012.3 - -
 
Date/Time
EST
Temp
°C
App
Temp
°C
Dew
Point
°C
Rel
Hum
%
Delta-T
°C
Wind Press
QNH
hPa
Press
MSL
hPa
Rain since
9am
mm
Dir  Spd
km/h
Gust
km/h
Spd
kts
Gust
kts
22/11:30pm 24.1 - - - - E 20 22 11 12 1012.4 - -
22/11:20pm 24.0 - - - - E 22 - 12 - - 1012.3 -
22/11:00pm 24.1 - - - - ESE 22 24 12 13 1012.5 - -
22/10:30pm 24.1 - - - - ESE 22 28 12 15 1012.7 - -
22/10:20pm 24.1 - - - - E 22 - 12 - - 1012.6 -
22/10:00pm 24.1 - - - - E 24 28 13 15 1012.4 - -
22/09:30pm 24.2 - - - - E 26 30 14 16 1012.2 - -
22/09:20pm 24.2 - - - - ESE 26 - 14 - - 1012.0 -
22/09:00pm 24.2 - - - - E 26 30 14 16 1012.0 - -
22/08:30pm 24.1 - - - - E 26 28 14 15 1011.8 - -
22/08:20pm 24.1 - - - - E 26 - 14 - - 1011.6 -
22/08:00pm 24.1 - - - - E 26 30 14 16 1011.5 - -
22/07:30pm 24.1 - - - - ESE 26 28 14 15 1011.4 - -
22/07:20pm 24.2 - - - - ESE 24 - 13 - - 1011.2 -
22/07:00pm 24.1 - - - - ESE 24 28 13 15 1011.0 - -
22/06:30pm 24.1 - - - - ESE 24 28 13 15 1010.7 - -
22/06:20pm 24.1 - - - - SE 20 - 11 - - 1010.6 -
22/06:00pm 24.3 - - - - SE 22 26 12 14 1010.6 - -
22/05:30pm 24.2 - - - - SE 22 24 12 13 1010.2 - -
22/05:20pm 24.3 - - - - SE 20 - 11 - - 1009.9 -
22/05:00pm 24.3 - - - - ESE 20 22 11 12 1009.7 - -
22/04:30pm 24.3 - - - - SE 20 24 11 13 1009.5 - -
22/04:20pm 24.2 - - - - SE 20 - 11 - - 1009.3 -
22/04:00pm 24.3 - - - - SSE 20 26 11 14 1009.6 - -
22/03:30pm 24.4 - - - - S 24 28 13 15 1009.7 - -
22/03:20pm 24.5 - - - - S 22 - 12 - - 1009.6 -
22/03:00pm 24.2 - - - - S 20 24 11 13 1009.7 - -
22/02:30pm 24.2 - - - - S 20 24 11 13 1009.8 - -
22/02:20pm 24.1 - - - - S 20 - 11 - - 1009.6 -
22/02:00pm 24.1 - - - - S 20 24 11 13 1009.9 - -
22/01:30pm 24.4 - - - - SSW 19 20 10 11 1010.2 - -
22/01:20pm 24.3 - - - - S 19 - 10 - - 1010.1 -
22/01:00pm 24.5 - - - - S 15 19 8 10 1010.4 - -
22/12:30pm 24.4 - - - - S 13 15 7 8 1010.6 - -
22/12:20pm 24.3 - - - - S 13 - 7 - - 1010.5 -
22/12:00pm 24.4 - - - - S 13 15 7 8 1010.8 - -
22/11:30am 24.4 - - - - S 13 17 7 9 1011.2 - -
22/11:20am 24.5 - - - - S 9 - 5 - - 1011.2 -
22/11:00am 24.6 - - - - S 9 11 5 6 1011.2 - -
22/10:30am 24.6 - - - - SSE 9 11 5 6 1011.4 - -
22/10:20am 24.3 - - - - S 11 - 6 - - 1011.2 -
22/10:00am 24.1 - - - - S 11 15 6 8 1011.7 - -
22/09:30am 24.3 - - - - SSW 13 17 7 9 1012.0 - -
22/09:20am 24.3 - - - - SSW 15 - 8 - - 1012.0 -
22/09:00am 24.0 - - - - SSW 17 20 9 11 1011.9 - -
22/08:30am 23.8 - - - - SSW 19 22 10 12 1011.8 - -
22/08:20am 23.6 - - - - SSW 20 - 11 - - 1011.8 -
22/08:00am 24.1 - - - - S 15 17 8 9 1011.7 - -
22/07:30am 24.4 - - - - S 9 11 5 6 1011.4 - -
22/07:20am 24.6 - - - - SSE 9 - 5 - - 1011.3 -
22/07:00am 24.1 - - - - S 11 13 6 7 1011.2 - -
22/06:30am 23.6 - - - - SSE 9 11 5 6 1011.1 - -
22/06:20am 23.4 - - - - SE 13 - 7 - - 1010.9 -
22/06:00am 23.3 - - - - S 13 17 7 9 1010.4 - -
22/05:30am 22.9 - - - - S 15 19 8 10 1010.4 - -
22/05:20am 23.1 - - - - S 19 - 10 - - 1010.3 -
22/05:00am 23.7 - - - - SSE 13 15 7 8 1010.3 - -
22/04:30am 23.9 - - - - S 9 11 5 6 1010.2 - -
22/04:20am 23.9 - - - - SSE 11 - 6 - - 1010.2 -
22/04:00am 23.8 - - - - SSE 13 15 7 8 1010.0 - -
22/03:30am 23.7 - - - - SSE 9 9 5 5 1009.9 - -
22/03:20am 23.8 - - - - SE 9 - 5 - - 1009.8 -
22/03:00am 23.6 - - - - SE 9 11 5 6 1010.0 - -
22/02:30am 23.5 - - - - SSE 13 17 7 9 1010.1 - -
22/02:20am 23.5 - - - - SSE 13 - 7 - - 1010.2 -
22/02:00am 23.5 - - - - SSE 15 17 8 9 1010.5 - -
22/01:30am 23.9 - - - - S 6 9 3 5 1010.9 - -
22/01:20am 23.9 - - - - S 6 - 3 - - 1010.7 -
22/01:00am 23.9 - - - - CALM 0 2 0 1 1011.1 - -
22/12:30am 24.0 - - - - SE 4 7 2 4 1011.7 - -
22/12:20am 23.9 - - - - ESE 2 - 1 - - 1011.4 -
22/12:00am 23.9 - - - - CALM 0 0 0 0 1011.8 - -
 
Date/Time
EST
Temp
°C
App
Temp
°C
Dew
Point
°C
Rel
Hum
%
Delta-T
°C
Wind Press
QNH
hPa
Press
MSL
hPa
Rain since
9am
mm
Dir  Spd
km/h
Gust
km/h
Spd
kts
Gust
kts
21/11:30pm 23.9 - - - - E 7 11 4 6 1011.7 - -
21/11:20pm 23.9 - - - - ESE 6 - 3 - - 1012.0 -
21/11:00pm 23.9 - - - - E 9 13 5 7 1012.0 - -
21/10:30pm 24.1 - - - - ESE 6 9 3 5 1012.4 - -
21/10:20pm 24.0 - - - - SE 4 - 2 - - 1012.8 -
21/10:00pm 24.1 - - - - E 9 13 5 7 1012.5 - -
21/09:30pm 24.1 - - - - ESE 9 13 5 7 1012.5 - -
21/09:20pm 24.2 - - - - SE 9 - 5 - - 1012.4 -
21/09:00pm 24.2 - - - - SE 6 7 3 4 1012.6 - -
21/08:30pm 24.1 - - - - SE 6 7 3 4 1012.8 - -
21/08:20pm 24.4 - - - - ESE 4 - 2 - - 1012.6 -
21/08:00pm 24.4 - - - - ESE 7 9 4 5 1012.3 - -
21/07:30pm 24.6 - - - - E 11 13 6 7 1011.8 - -
21/07:20pm 24.6 - - - - E 9 - 5 - - 1011.8 -
21/07:00pm 24.6 - - - - ESE 9 13 5 7 1011.8 - -
21/06:30pm 24.6 - - - - SE 7 11 4 6 1011.8 - -
21/06:20pm 24.7 - - - - SSE 7 - 4 - - 1011.7 -
21/06:00pm 24.7 - - - - S 9 11 5 6 1011.8 - -
21/05:30pm 24.7 - - - - S 11 15 6 8 1011.6 - -
21/05:20pm 24.8 - - - - S 11 - 6 - - 1011.5 -
21/05:00pm 24.7 - - - - S 13 15 7 8 1011.4 - -
21/04:30pm 24.7 - - - - SSE 9 15 5 8 1011.3 - -
21/04:20pm 24.7 - - - - SE 9 - 5 - - 1011.1 -
21/04:00pm 24.8 - - - - SSE 11 13 6 7 1011.1 - -
21/03:30pm 24.7 - - - - SE 9 13 5 7 1011.2 - -
21/03:20pm 24.8 - - - - SSE 9 - 5 - - 1011.2 -
21/03:00pm 25.0 - - - - SSE 9 11 5 6 1011.5 - -
21/02:30pm 24.9 - - - - S 9 11 5 6 1011.7 - -
21/02:20pm 24.9 - - - - SSE 7 - 4 - - 1011.6 -
21/02:00pm 24.9 - - - - SE 7 11 4 6 1011.7 - -
21/01:30pm 24.9 - - - - SSE 7 11 4 6 1012.1 - -
21/01:20pm 25.1 - - - - SSE 6 - 3 - - 1012.1 -
21/01:00pm 24.9 - - - - SE 9 11 5 6 1012.4 - -
21/12:30pm 26.0 - - - - CALM 0 0 0 0 1012.9 - -
21/12:20pm 25.5 - - - - CALM 0 - 0 - - 1012.9 -
21/12:00pm 26.4 - - - - CALM 0 6 0 3 1013.3 - -
21/11:30am 25.7 - - - - CALM 0 0 0 0 1013.7 - -
21/11:20am 25.3 - - - - CALM 0 - 0 - - 1013.7 -
21/11:00am 26.2 - - - - CALM 0 0 0 0 1014.1 - -
21/10:30am 25.1 - - - - CALM 0 4 0 2 1014.1 - -
21/10:20am 25.0 - - - - ENE 4 - 2 - - 1014.0 -
21/10:00am 25.0 - - - - E 7 11 4 6 1014.2 - -
21/09:30am 24.9 - - - - E 9 11 5 6 1014.2 - -
21/09:20am 24.9 - - - - E 9 - 5 - - 1014.1 -
21/09:00am 24.6 - - - - ESE 11 13 6 7 1014.2 - -
21/08:30am 24.8 - - - - E 13 15 7 8 1014.1 - -
21/08:20am 24.7 - - - - E 11 - 6 - - 1013.9 -
21/08:00am 24.7 - - - - E 13 15 7 8 1014.0 - -
21/07:30am 24.8 - - - - E 13 15 7 8 1014.0 - -
21/07:20am 24.8 - - - - E 11 - 6 - - 1013.9 -
21/07:00am 24.7 - - - - E 13 15 7 8 1013.9 - -
21/06:30am 24.7 - - - - ESE 11 15 6 8 1013.8 - -
21/06:20am 24.6 - - - - E 13 - 7 - - 1013.5 -
21/06:00am 24.2 - - - - SE 13 15 7 8 1013.6 - -
21/05:30am 24.0 - - - - ESE 11 13 6 7 1013.5 - -
21/05:20am 24.0 - - - - E 11 - 6 - - 1013.4 -
21/05:00am 24.0 - - - - E 13 15 7 8 1013.5 - -
21/04:30am 24.1 - - - - E 13 15 7 8 1013.4 - -
21/04:20am 24.1 - - - - E 15 - 8 - - 1013.4 -
21/04:00am 24.1 - - - - E 15 17 8 9 1013.5 - -
21/03:30am 24.0 - - - - E 15 19 8 10 1013.4 - -
21/03:20am 24.1 - - - - E 17 - 9 - - 1013.3 -
21/03:00am 24.0 - - - - E 17 22 9 12 1013.4 - -
21/02:30am 24.1 - - - - E 19 24 10 13 1013.6 - -
21/02:20am 24.2 - - - - E 19 - 10 - - 1013.7 -
21/02:00am 24.1 - - - - E 20 26 11 14 1013.9 - -
21/01:30am 24.2 - - - - E 24 28 13 15 1014.0 - -
21/01:20am 24.2 - - - - ESE 20 - 11 - - 1013.9 -

Other Formats:

Comma delimited format used in spreadsheet applications
http://www.bom.gov.au/fwo/IDQ60801/IDQ60801.94371.axf

JavaScript Object Notation format (JSON) in row-major order
http://www.bom.gov.au/fwo/IDQ60801/IDQ60801.94371.json